sensor_id;sensor_type;location;lat;lon;timestamp;P1;durP1;ratioP1;P2;durP2;ratioP2
44120;SDS011;29783;52.504;13.478;2022-08-30T00:00:24;3.72;;;2.22;;
44120;SDS011;29783;52.504;13.478;2022-08-30T00:03:09;2.20;;;1.83;;
44120;SDS011;29783;52.504;13.478;2022-08-30T00:05:40;2.15;;;2.05;;
44120;SDS011;29783;52.504;13.478;2022-08-30T00:08:12;2.38;;;2.17;;
44120;SDS011;29783;52.504;13.478;2022-08-30T00:10:39;2.42;;;2.15;;
44120;SDS011;29783;52.504;13.478;2022-08-30T00:13:06;2.30;;;2.10;;
44120;SDS011;29783;52.504;13.478;2022-08-30T00:15:34;3.58;;;2.30;;
44120;SDS011;29783;52.504;13.478;2022-08-30T00:18:02;2.58;;;2.38;;
44120;SDS011;29783;52.504;13.478;2022-08-30T00:20:30;4.53;;;2.50;;
44120;SDS011;29783;52.504;13.478;2022-08-30T00:22:57;3.95;;;2.47;;
44120;SDS011;29783;52.504;13.478;2022-08-30T00:25:23;3.90;;;2.70;;
44120;SDS011;29783;52.504;13.478;2022-08-30T00:27:52;3.65;;;2.40;;
44120;SDS011;29783;52.504;13.478;2022-08-30T00:30:21;3.42;;;2.38;;
44120;SDS011;29783;52.504;13.478;2022-08-30T00:32:50;3.38;;;2.42;;
44120;SDS011;29783;52.504;13.478;2022-08-30T00:35:19;3.90;;;2.60;;
44120;SDS011;29783;52.504;13.478;2022-08-30T00:37:46;2.42;;;2.20;;
44120;SDS011;29783;52.504;13.478;2022-08-30T00:40:17;3.15;;;2.53;;
44120;SDS011;29783;52.504;13.478;2022-08-30T00:45:20;4.20;;;2.63;;
44120;SDS011;29783;52.504;13.478;2022-08-30T00:47:54;4.10;;;2.30;;
44120;SDS011;29783;52.504;13.478;2022-08-30T00:50:24;2.80;;;2.55;;
44120;SDS011;29783;52.504;13.478;2022-08-30T00:52:54;2.92;;;2.63;;
44120;SDS011;29783;52.504;13.478;2022-08-30T00:55:22;3.50;;;2.45;;
44120;SDS011;29783;52.504;13.478;2022-08-30T00:57:52;2.92;;;2.63;;
44120;SDS011;29783;52.504;13.478;2022-08-30T01:00:23;4.35;;;3.40;;
44120;SDS011;29783;52.504;13.478;2022-08-30T01:02:49;3.50;;;3.05;;
44120;SDS011;29783;52.504;13.478;2022-08-30T01:05:15;3.92;;;2.92;;
44120;SDS011;29783;52.504;13.478;2022-08-30T01:07:44;4.00;;;3.05;;
44120;SDS011;29783;52.504;13.478;2022-08-30T01:10:11;3.60;;;3.30;;
44120;SDS011;29783;52.504;13.478;2022-08-30T01:12:39;4.90;;;3.60;;
44120;SDS011;29783;52.504;13.478;2022-08-30T01:15:08;4.00;;;3.60;;
44120;SDS011;29783;52.504;13.478;2022-08-30T01:18:06;5.40;;;3.38;;
44120;SDS011;29783;52.504;13.478;2022-08-30T01:26:45;5.95;;;4.00;;
44120;SDS011;29783;52.504;13.478;2022-08-30T01:29:22;4.72;;;4.22;;
44120;SDS011;29783;52.504;13.478;2022-08-30T01:32:20;4.97;;;4.00;;
44120;SDS011;29783;52.504;13.478;2022-08-30T01:34:53;4.40;;;4.00;;
44120;SDS011;29783;52.504;13.478;2022-08-30T01:37:26;6.15;;;4.50;;
44120;SDS011;29783;52.504;13.478;2022-08-30T01:39:54;6.57;;;4.45;;
44120;SDS011;29783;52.504;13.478;2022-08-30T01:42:23;6.90;;;4.20;;
44120;SDS011;29783;52.504;13.478;2022-08-30T01:44:55;7.30;;;4.63;;
44120;SDS011;29783;52.504;13.478;2022-08-30T01:47:24;5.75;;;5.25;;
44120;SDS011;29783;52.504;13.478;2022-08-30T01:49:53;5.57;;;5.00;;
44120;SDS011;29783;52.504;13.478;2022-08-30T01:52:44;4.80;;;4.40;;
44120;SDS011;29783;52.504;13.478;2022-08-30T01:55:16;12.07;;;5.50;;
44120;SDS011;29783;52.504;13.478;2022-08-30T01:57:52;7.25;;;5.13;;
44120;SDS011;29783;52.504;13.478;2022-08-30T02:00:19;6.68;;;6.00;;
44120;SDS011;29783;52.504;13.478;2022-08-30T02:02:54;7.35;;;5.93;;
44120;SDS011;29783;52.504;13.478;2022-08-30T02:05:43;9.02;;;6.53;;
44120;SDS011;29783;52.504;13.478;2022-08-30T02:08:35;11.48;;;6.95;;
44120;SDS011;29783;52.504;13.478;2022-08-30T02:11:07;16.35;;;7.32;;
44120;SDS011;29783;52.504;13.478;2022-08-30T02:13:45;6.25;;;5.65;;
44120;SDS011;29783;52.504;13.478;2022-08-30T02:16:12;7.30;;;6.60;;
44120;SDS011;29783;52.504;13.478;2022-08-30T02:18:49;7.07;;;6.38;;
44120;SDS011;29783;52.504;13.478;2022-08-30T02:21:35;7.47;;;6.72;;
44120;SDS011;29783;52.504;13.478;2022-08-30T02:24:12;12.25;;;7.95;;
44120;SDS011;29783;52.504;13.478;2022-08-30T02:26:38;11.63;;;9.20;;
44120;SDS011;29783;52.504;13.478;2022-08-30T02:29:19;14.27;;;9.13;;
44120;SDS011;29783;52.504;13.478;2022-08-30T02:31:51;12.45;;;9.32;;
44120;SDS011;29783;52.504;13.478;2022-08-30T02:34:23;14.75;;;8.95;;
44120;SDS011;29783;52.504;13.478;2022-08-30T02:36:49;10.52;;;8.63;;
44120;SDS011;29783;52.504;13.478;2022-08-30T02:39:18;11.18;;;9.32;;
44120;SDS011;29783;52.504;13.478;2022-08-30T02:41:47;10.20;;;9.18;;
44120;SDS011;29783;52.504;13.478;2022-08-30T02:44:18;11.73;;;10.43;;
44120;SDS011;29783;52.504;13.478;2022-08-30T02:46:44;15.60;;;10.35;;
44120;SDS011;29783;52.504;13.478;2022-08-30T02:49:14;14.30;;;9.73;;
44120;SDS011;29783;52.504;13.478;2022-08-30T02:51:40;14.48;;;9.73;;
44120;SDS011;29783;52.504;13.478;2022-08-30T02:54:06;12.35;;;10.65;;
44120;SDS011;29783;52.504;13.478;2022-08-30T02:56:39;12.55;;;9.30;;
44120;SDS011;29783;52.504;13.478;2022-08-30T02:59:09;11.90;;;10.30;;
44120;SDS011;29783;52.504;13.478;2022-08-30T03:01:38;14.20;;;11.38;;
44120;SDS011;29783;52.504;13.478;2022-08-30T03:04:04;15.70;;;10.43;;
44120;SDS011;29783;52.504;13.478;2022-08-30T03:06:34;14.43;;;10.43;;
44120;SDS011;29783;52.504;13.478;2022-08-30T03:09:07;11.70;;;10.50;;
44120;SDS011;29783;52.504;13.478;2022-08-30T03:11:38;12.20;;;10.32;;
44120;SDS011;29783;52.504;13.478;2022-08-30T03:14:14;12.50;;;10.52;;
44120;SDS011;29783;52.504;13.478;2022-08-30T03:17:02;16.45;;;10.88;;
44120;SDS011;29783;52.504;13.478;2022-08-30T03:19:35;11.45;;;10.30;;
44120;SDS011;29783;52.504;13.478;2022-08-30T03:25:48;17.60;;;10.38;;
44120;SDS011;29783;52.504;13.478;2022-08-30T03:28:23;12.68;;;11.38;;
44120;SDS011;29783;52.504;13.478;2022-08-30T03:31:02;15.50;;;10.05;;
44120;SDS011;29783;52.504;13.478;2022-08-30T03:34:04;15.27;;;12.20;;
44120;SDS011;29783;52.504;13.478;2022-08-30T03:36:52;16.15;;;12.52;;
44120;SDS011;29783;52.504;13.478;2022-08-30T03:39:22;14.27;;;12.50;;
44120;SDS011;29783;52.504;13.478;2022-08-30T03:42:05;18.15;;;12.23;;
44120;SDS011;29783;52.504;13.478;2022-08-30T03:47:22;16.50;;;12.85;;
44120;SDS011;29783;52.504;13.478;2022-08-30T03:52:42;13.63;;;11.60;;
44120;SDS011;29783;52.504;13.478;2022-08-30T03:55:19;17.35;;;11.45;;
44120;SDS011;29783;52.504;13.478;2022-08-30T03:57:56;17.55;;;11.07;;
44120;SDS011;29783;52.504;13.478;2022-08-30T04:37:26;15.45;;;12.65;;
44120;SDS011;29783;52.504;13.478;2022-08-30T04:40:25;17.95;;;12.80;;
44120;SDS011;29783;52.504;13.478;2022-08-30T04:43:06;19.63;;;12.60;;
44120;SDS011;29783;52.504;13.478;2022-08-30T04:45:49;13.05;;;11.55;;
44120;SDS011;29783;52.504;13.478;2022-08-30T04:48:23;15.05;;;11.75;;
44120;SDS011;29783;52.504;13.478;2022-08-30T04:51:14;13.77;;;11.48;;
44120;SDS011;29783;52.504;13.478;2022-08-30T04:53:47;15.02;;;11.80;;
44120;SDS011;29783;52.504;13.478;2022-08-30T05:55:28;7.72;;;6.07;;
44120;SDS011;29783;52.504;13.478;2022-08-30T06:11:18;5.47;;;4.88;;
44120;SDS011;29783;52.504;13.478;2022-08-30T06:14:06;5.75;;;5.15;;
44120;SDS011;29783;52.504;13.478;2022-08-30T06:24:16;5.97;;;5.05;;
44120;SDS011;29783;52.504;13.478;2022-08-30T06:44:18;8.55;;;5.32;;
44120;SDS011;29783;52.504;13.478;2022-08-30T06:51:05;11.50;;;5.85;;
44120;SDS011;29783;52.504;13.478;2022-08-30T07:00:35;9.93;;;6.28;;
44120;SDS011;29783;52.504;13.478;2022-08-30T07:03:36;7.43;;;6.72;;
44120;SDS011;29783;52.504;13.478;2022-08-30T07:09:45;8.68;;;7.38;;
44120;SDS011;29783;52.504;13.478;2022-08-30T07:16:31;10.35;;;7.85;;
44120;SDS011;29783;52.504;13.478;2022-08-30T07:23:05;10.60;;;7.07;;
44120;SDS011;29783;52.504;13.478;2022-08-30T07:25:37;10.18;;;6.68;;
44120;SDS011;29783;52.504;13.478;2022-08-30T07:28:17;9.65;;;6.00;;
44120;SDS011;29783;52.504;13.478;2022-08-30T07:31:10;7.82;;;5.80;;
44120;SDS011;29783;52.504;13.478;2022-08-30T07:34:33;10.43;;;5.95;;
44120;SDS011;29783;52.504;13.478;2022-08-30T07:44:51;13.80;;;5.50;;
44120;SDS011;29783;52.504;13.478;2022-08-30T07:47:27;17.00;;;5.72;;
44120;SDS011;29783;52.504;13.478;2022-08-30T07:50:31;9.20;;;4.70;;
44120;SDS011;29783;52.504;13.478;2022-08-30T07:57:09;9.30;;;5.53;;
44120;SDS011;29783;52.504;13.478;2022-08-30T07:59:45;6.97;;;5.50;;
44120;SDS011;29783;52.504;13.478;2022-08-30T08:13:12;5.80;;;5.20;;
44120;SDS011;29783;52.504;13.478;2022-08-30T08:15:47;12.93;;;3.85;;
44120;SDS011;29783;52.504;13.478;2022-08-30T08:18:14;9.38;;;3.78;;
44120;SDS011;29783;52.504;13.478;2022-08-30T08:20:55;4.90;;;4.10;;
44120;SDS011;29783;52.504;13.478;2022-08-30T08:23:35;4.25;;;3.47;;
44120;SDS011;29783;52.504;13.478;2022-08-30T08:33:38;3.17;;;1.77;;
44120;SDS011;29783;52.504;13.478;2022-08-30T09:07:22;4.40;;;0.70;;
44120;SDS011;29783;52.504;13.478;2022-08-30T09:09:51;5.05;;;0.52;;
44120;SDS011;29783;52.504;13.478;2022-08-30T09:12:17;1.02;;;0.40;;
44120;SDS011;29783;52.504;13.478;2022-08-30T09:14:48;0.80;;;0.40;;
44120;SDS011;29783;52.504;13.478;2022-08-30T09:17:21;0.85;;;0.50;;
44120;SDS011;29783;52.504;13.478;2022-08-30T09:22:31;1.40;;;0.47;;
44120;SDS011;29783;52.504;13.478;2022-08-30T09:27:51;1.58;;;0.45;;
44120;SDS011;29783;52.504;13.478;2022-08-30T09:30:24;0.82;;;0.40;;
44120;SDS011;29783;52.504;13.478;2022-08-30T09:32:54;1.15;;;0.50;;
44120;SDS011;29783;52.504;13.478;2022-08-30T09:35:23;1.10;;;0.50;;
44120;SDS011;29783;52.504;13.478;2022-08-30T09:38:07;4.05;;;0.50;;
44120;SDS011;29783;52.504;13.478;2022-08-30T09:40:36;0.55;;;0.38;;
44120;SDS011;29783;52.504;13.478;2022-08-30T09:43:19;0.38;;;0.20;;
44120;SDS011;29783;52.504;13.478;2022-08-30T09:48:35;1.30;;;0.40;;
44120;SDS011;29783;52.504;13.478;2022-08-30T09:57:03;4.93;;;0.60;;
44120;SDS011;29783;52.504;13.478;2022-08-30T10:02:50;0.97;;;0.40;;
44120;SDS011;29783;52.504;13.478;2022-08-30T10:05:34;2.53;;;0.40;;
44120;SDS011;29783;52.504;13.478;2022-08-30T10:11:01;1.85;;;0.50;;
44120;SDS011;29783;52.504;13.478;2022-08-30T10:13:50;1.20;;;0.28;;
44120;SDS011;29783;52.504;13.478;2022-08-30T10:16:33;5.13;;;0.60;;
44120;SDS011;29783;52.504;13.478;2022-08-30T10:22:16;0.55;;;0.40;;
44120;SDS011;29783;52.504;13.478;2022-08-30T10:24:44;0.55;;;0.38;;
44120;SDS011;29783;52.504;13.478;2022-08-30T10:27:16;3.58;;;0.40;;
44120;SDS011;29783;52.504;13.478;2022-08-30T10:30:11;1.30;;;0.40;;
44120;SDS011;29783;52.504;13.478;2022-08-30T10:32:52;0.85;;;0.40;;
44120;SDS011;29783;52.504;13.478;2022-08-30T10:35:29;4.35;;;0.50;;
44120;SDS011;29783;52.504;13.478;2022-08-30T10:41:27;0.88;;;0.57;;
44120;SDS011;29783;52.504;13.478;2022-08-30T10:46:21;3.28;;;0.55;;
44120;SDS011;29783;52.504;13.478;2022-08-30T10:48:48;2.63;;;0.70;;
44120;SDS011;29783;52.504;13.478;2022-08-30T10:51:24;6.65;;;0.75;;
44120;SDS011;29783;52.504;13.478;2022-08-30T10:54:22;2.15;;;0.57;;
44120;SDS011;29783;52.504;13.478;2022-08-30T10:57:02;0.77;;;0.57;;
44120;SDS011;29783;52.504;13.478;2022-08-30T10:59:29;1.23;;;0.50;;
44120;SDS011;29783;52.504;13.478;2022-08-30T11:14:04;4.53;;;0.40;;
44120;SDS011;29783;52.504;13.478;2022-08-30T11:16:38;0.85;;;0.60;;
44120;SDS011;29783;52.504;13.478;2022-08-30T11:26:01;1.38;;;0.52;;
44120;SDS011;29783;52.504;13.478;2022-08-30T11:41:39;1.92;;;0.70;;
44120;SDS011;29783;52.504;13.478;2022-08-30T11:44:13;1.77;;;0.80;;
44120;SDS011;29783;52.504;13.478;2022-08-30T11:46:45;0.90;;;0.50;;
44120;SDS011;29783;52.504;13.478;2022-08-30T11:51:57;1.35;;;0.50;;
44120;SDS011;29783;52.504;13.478;2022-08-30T12:00:37;1.42;;;0.47;;
44120;SDS011;29783;52.504;13.478;2022-08-30T12:03:26;0.40;;;0.40;;
44120;SDS011;29783;52.504;13.478;2022-08-30T12:05:56;1.55;;;0.68;;
44120;SDS011;29783;52.504;13.478;2022-08-30T12:08:44;8.90;;;0.73;;
44120;SDS011;29783;52.504;13.478;2022-08-30T12:16:09;2.08;;;0.70;;
44120;SDS011;29783;52.504;13.478;2022-08-30T12:19:23;8.95;;;0.90;;
44120;SDS011;29783;52.504;13.478;2022-08-30T12:21:55;1.55;;;0.80;;
44120;SDS011;29783;52.504;13.478;2022-08-30T12:24:28;2.65;;;0.77;;
44120;SDS011;29783;52.504;13.478;2022-08-30T12:26:54;1.42;;;0.50;;
44120;SDS011;29783;52.504;13.478;2022-08-30T12:29:25;5.38;;;0.88;;
44120;SDS011;29783;52.504;13.478;2022-08-30T12:32:01;1.17;;;0.38;;
44120;SDS011;29783;52.504;13.478;2022-08-30T12:40:11;1.33;;;0.52;;
44120;SDS011;29783;52.504;13.478;2022-08-30T12:42:49;4.55;;;0.43;;
44120;SDS011;29783;52.504;13.478;2022-08-30T12:48:35;1.05;;;0.40;;
44120;SDS011;29783;52.504;13.478;2022-08-30T12:51:04;1.05;;;0.50;;
44120;SDS011;29783;52.504;13.478;2022-08-30T12:53:38;4.38;;;0.60;;
44120;SDS011;29783;52.504;13.478;2022-08-30T12:56:20;5.28;;;0.50;;
44120;SDS011;29783;52.504;13.478;2022-08-30T12:58:58;1.13;;;0.50;;
44120;SDS011;29783;52.504;13.478;2022-08-30T13:08:10;3.25;;;1.00;;
44120;SDS011;29783;52.504;13.478;2022-08-30T13:10:50;1.90;;;0.75;;
44120;SDS011;29783;52.504;13.478;2022-08-30T13:13:29;1.42;;;0.60;;
44120;SDS011;29783;52.504;13.478;2022-08-30T13:16:08;0.77;;;0.60;;
44120;SDS011;29783;52.504;13.478;2022-08-30T13:21:54;3.55;;;1.05;;
44120;SDS011;29783;52.504;13.478;2022-08-30T13:24:23;2.90;;;1.52;;
44120;SDS011;29783;52.504;13.478;2022-08-30T13:26:53;2.10;;;0.95;;
44120;SDS011;29783;52.504;13.478;2022-08-30T13:29:26;1.42;;;0.95;;
44120;SDS011;29783;52.504;13.478;2022-08-30T13:32:02;1.02;;;0.90;;
44120;SDS011;29783;52.504;13.478;2022-08-30T13:38:04;2.63;;;1.08;;
44120;SDS011;29783;52.504;13.478;2022-08-30T14:05:25;1.27;;;1.17;;
44120;SDS011;29783;52.504;13.478;2022-08-30T14:08:29;2.97;;;1.33;;
44120;SDS011;29783;52.504;13.478;2022-08-30T14:18:22;1.38;;;1.27;;
44120;SDS011;29783;52.504;13.478;2022-08-30T14:38:44;1.98;;;1.48;;
44120;SDS011;29783;52.504;13.478;2022-08-30T14:44:50;2.25;;;1.33;;
44120;SDS011;29783;52.504;13.478;2022-08-30T14:54:02;2.40;;;1.50;;
44120;SDS011;29783;52.504;13.478;2022-08-30T14:56:37;3.20;;;1.48;;
44120;SDS011;29783;52.504;13.478;2022-08-30T14:59:12;1.70;;;1.20;;
44120;SDS011;29783;52.504;13.478;2022-08-30T15:01:45;4.50;;;1.25;;
44120;SDS011;29783;52.504;13.478;2022-08-30T15:04:38;8.32;;;1.25;;
44120;SDS011;29783;52.504;13.478;2022-08-30T15:07:23;3.75;;;1.30;;
44120;SDS011;29783;52.504;13.478;2022-08-30T15:09:57;5.95;;;1.70;;
44120;SDS011;29783;52.504;13.478;2022-08-30T15:12:33;4.18;;;1.30;;
44120;SDS011;29783;52.504;13.478;2022-08-30T15:15:21;1.63;;;1.25;;
44120;SDS011;29783;52.504;13.478;2022-08-30T15:22:11;2.72;;;0.93;;
44120;SDS011;29783;52.504;13.478;2022-08-30T15:28:50;3.50;;;1.40;;
44120;SDS011;29783;52.504;13.478;2022-08-30T15:34:25;1.55;;;1.17;;
44120;SDS011;29783;52.504;13.478;2022-08-30T15:37:03;1.83;;;0.90;;
44120;SDS011;29783;52.504;13.478;2022-08-30T15:39:46;4.25;;;1.50;;
44120;SDS011;29783;52.504;13.478;2022-08-30T15:42:26;4.05;;;1.38;;
44120;SDS011;29783;52.504;13.478;2022-08-30T15:44:57;1.13;;;1.02;;
44120;SDS011;29783;52.504;13.478;2022-08-30T15:47:26;2.53;;;1.33;;
44120;SDS011;29783;52.504;13.478;2022-08-30T15:49:58;4.53;;;1.23;;
44120;SDS011;29783;52.504;13.478;2022-08-30T15:52:27;2.83;;;1.20;;
44120;SDS011;29783;52.504;13.478;2022-08-30T15:58:37;1.63;;;1.15;;
44120;SDS011;29783;52.504;13.478;2022-08-30T16:01:17;6.53;;;1.30;;
44120;SDS011;29783;52.504;13.478;2022-08-30T16:06:33;1.70;;;0.82;;
44120;SDS011;29783;52.504;13.478;2022-08-30T16:09:06;1.38;;;0.85;;
44120;SDS011;29783;52.504;13.478;2022-08-30T16:11:48;3.45;;;0.80;;
44120;SDS011;29783;52.504;13.478;2022-08-30T16:14:17;2.08;;;0.95;;
44120;SDS011;29783;52.504;13.478;2022-08-30T16:16:49;2.10;;;0.80;;
44120;SDS011;29783;52.504;13.478;2022-08-30T16:19:15;2.17;;;1.15;;
44120;SDS011;29783;52.504;13.478;2022-08-30T16:21:41;0.70;;;0.70;;
44120;SDS011;29783;52.504;13.478;2022-08-30T16:24:08;5.18;;;0.50;;
44120;SDS011;29783;52.504;13.478;2022-08-30T16:26:35;3.30;;;1.00;;
44120;SDS011;29783;52.504;13.478;2022-08-30T16:29:02;1.60;;;0.88;;
44120;SDS011;29783;52.504;13.478;2022-08-30T16:31:30;2.55;;;0.80;;
44120;SDS011;29783;52.504;13.478;2022-08-30T16:33:57;5.20;;;0.93;;
44120;SDS011;29783;52.504;13.478;2022-08-30T16:36:23;1.20;;;0.63;;
44120;SDS011;29783;52.504;13.478;2022-08-30T16:38:50;1.38;;;0.60;;
44120;SDS011;29783;52.504;13.478;2022-08-30T16:41:19;1.35;;;0.70;;
44120;SDS011;29783;52.504;13.478;2022-08-30T16:43:46;2.22;;;0.70;;
44120;SDS011;29783;52.504;13.478;2022-08-30T16:46:19;3.60;;;0.63;;
44120;SDS011;29783;52.504;13.478;2022-08-30T16:48:46;7.38;;;1.00;;
44120;SDS011;29783;52.504;13.478;2022-08-30T16:51:17;0.93;;;0.60;;
44120;SDS011;29783;52.504;13.478;2022-08-30T16:53:46;1.23;;;0.70;;
44120;SDS011;29783;52.504;13.478;2022-08-30T16:56:17;2.03;;;0.98;;
44120;SDS011;29783;52.504;13.478;2022-08-30T16:58:45;1.08;;;0.85;;
44120;SDS011;29783;52.504;13.478;2022-08-30T17:01:12;1.50;;;0.98;;
44120;SDS011;29783;52.504;13.478;2022-08-30T17:03:38;1.63;;;1.00;;
44120;SDS011;29783;52.504;13.478;2022-08-30T17:06:07;3.25;;;1.00;;
44120;SDS011;29783;52.504;13.478;2022-08-30T17:08:36;2.05;;;1.00;;
44120;SDS011;29783;52.504;13.478;2022-08-30T17:11:02;1.20;;;0.90;;
44120;SDS011;29783;52.504;13.478;2022-08-30T17:13:34;5.03;;;1.20;;
44120;SDS011;29783;52.504;13.478;2022-08-30T17:16:06;2.17;;;1.13;;
44120;SDS011;29783;52.504;13.478;2022-08-30T17:18:35;1.35;;;1.17;;
44120;SDS011;29783;52.504;13.478;2022-08-30T17:21:01;2.80;;;1.35;;
44120;SDS011;29783;52.504;13.478;2022-08-30T17:23:28;2.28;;;1.13;;
44120;SDS011;29783;52.504;13.478;2022-08-30T17:25:56;3.65;;;1.00;;
44120;SDS011;29783;52.504;13.478;2022-08-30T17:28:25;2.78;;;1.30;;
44120;SDS011;29783;52.504;13.478;2022-08-30T17:30:51;8.57;;;1.52;;
44120;SDS011;29783;52.504;13.478;2022-08-30T17:33:17;3.38;;;1.38;;
44120;SDS011;29783;52.504;13.478;2022-08-30T17:35:43;2.80;;;1.35;;
44120;SDS011;29783;52.504;13.478;2022-08-30T17:38:10;3.08;;;1.33;;
44120;SDS011;29783;52.504;13.478;2022-08-30T17:40:36;4.22;;;2.08;;
44120;SDS011;29783;52.504;13.478;2022-08-30T17:43:02;1.85;;;1.40;;
44120;SDS011;29783;52.504;13.478;2022-08-30T17:45:28;3.38;;;1.70;;
44120;SDS011;29783;52.504;13.478;2022-08-30T17:47:54;5.93;;;1.55;;
44120;SDS011;29783;52.504;13.478;2022-08-30T17:50:20;2.28;;;1.30;;
44120;SDS011;29783;52.504;13.478;2022-08-30T17:52:46;5.07;;;1.45;;
44120;SDS011;29783;52.504;13.478;2022-08-30T17:55:12;3.13;;;1.58;;
44120;SDS011;29783;52.504;13.478;2022-08-30T17:57:38;3.42;;;1.85;;
44120;SDS011;29783;52.504;13.478;2022-08-30T18:00:07;3.33;;;1.73;;
44120;SDS011;29783;52.504;13.478;2022-08-30T18:02:35;8.45;;;1.58;;
44120;SDS011;29783;52.504;13.478;2022-08-30T18:05:02;3.72;;;1.75;;
44120;SDS011;29783;52.504;13.478;2022-08-30T18:07:28;4.82;;;1.73;;
44120;SDS011;29783;52.504;13.478;2022-08-30T18:09:54;3.00;;;1.63;;
44120;SDS011;29783;52.504;13.478;2022-08-30T18:12:20;4.28;;;1.70;;
44120;SDS011;29783;52.504;13.478;2022-08-30T18:14:45;6.13;;;1.85;;
44120;SDS011;29783;52.504;13.478;2022-08-30T18:17:11;2.15;;;1.63;;
44120;SDS011;29783;52.504;13.478;2022-08-30T18:19:37;7.72;;;2.05;;
44120;SDS011;29783;52.504;13.478;2022-08-30T18:22:03;2.70;;;2.13;;
44120;SDS011;29783;52.504;13.478;2022-08-30T18:24:29;5.15;;;2.10;;
44120;SDS011;29783;52.504;13.478;2022-08-30T18:26:55;7.50;;;2.30;;
44120;SDS011;29783;52.504;13.478;2022-08-30T18:29:20;3.10;;;1.98;;
44120;SDS011;29783;52.504;13.478;2022-08-30T18:31:47;4.72;;;1.90;;
44120;SDS011;29783;52.504;13.478;2022-08-30T18:34:13;4.43;;;2.08;;
44120;SDS011;29783;52.504;13.478;2022-08-30T18:36:38;3.13;;;1.90;;
44120;SDS011;29783;52.504;13.478;2022-08-30T18:39:05;1.90;;;1.63;;
44120;SDS011;29783;52.504;13.478;2022-08-30T18:41:30;5.40;;;1.98;;
44120;SDS011;29783;52.504;13.478;2022-08-30T18:43:56;2.13;;;1.70;;
44120;SDS011;29783;52.504;13.478;2022-08-30T18:46:21;6.55;;;2.15;;
44120;SDS011;29783;52.504;13.478;2022-08-30T18:48:47;3.72;;;2.15;;
44120;SDS011;29783;52.504;13.478;2022-08-30T18:51:15;6.22;;;1.67;;
44120;SDS011;29783;52.504;13.478;2022-08-30T18:53:42;2.67;;;1.75;;
44120;SDS011;29783;52.504;13.478;2022-08-30T18:56:08;3.78;;;1.90;;
44120;SDS011;29783;52.504;13.478;2022-08-30T18:58:34;5.45;;;1.70;;
44120;SDS011;29783;52.504;13.478;2022-08-30T19:01:00;5.93;;;1.80;;
44120;SDS011;29783;52.504;13.478;2022-08-30T19:03:26;2.53;;;1.67;;
44120;SDS011;29783;52.504;13.478;2022-08-30T19:05:53;6.05;;;1.80;;
44120;SDS011;29783;52.504;13.478;2022-08-30T19:08:18;3.47;;;1.75;;
44120;SDS011;29783;52.504;13.478;2022-08-30T19:10:44;2.30;;;1.70;;
44120;SDS011;29783;52.504;13.478;2022-08-30T19:13:09;3.60;;;1.90;;
44120;SDS011;29783;52.504;13.478;2022-08-30T19:15:36;2.55;;;1.75;;
44120;SDS011;29783;52.504;13.478;2022-08-30T19:18:03;3.80;;;1.83;;
44120;SDS011;29783;52.504;13.478;2022-08-30T19:20:29;3.67;;;1.80;;
44120;SDS011;29783;52.504;13.478;2022-08-30T19:22:54;6.13;;;1.90;;
44120;SDS011;29783;52.504;13.478;2022-08-30T19:25:21;3.03;;;1.85;;
44120;SDS011;29783;52.504;13.478;2022-08-30T19:27:48;3.03;;;1.52;;
44120;SDS011;29783;52.504;13.478;2022-08-30T19:30:16;5.55;;;1.42;;
44120;SDS011;29783;52.504;13.478;2022-08-30T19:32:44;3.17;;;1.77;;
44120;SDS011;29783;52.504;13.478;2022-08-30T19:35:10;4.75;;;1.67;;
44120;SDS011;29783;52.504;13.478;2022-08-30T19:37:36;4.40;;;1.95;;
44120;SDS011;29783;52.504;13.478;2022-08-30T19:40:03;3.53;;;1.63;;
44120;SDS011;29783;52.504;13.478;2022-08-30T19:42:30;3.33;;;1.63;;
44120;SDS011;29783;52.504;13.478;2022-08-30T19:44:56;3.85;;;1.90;;
44120;SDS011;29783;52.504;13.478;2022-08-30T19:47:22;2.60;;;1.50;;
44120;SDS011;29783;52.504;13.478;2022-08-30T19:49:47;5.90;;;1.50;;
44120;SDS011;29783;52.504;13.478;2022-08-30T19:52:13;3.38;;;1.75;;
44120;SDS011;29783;52.504;13.478;2022-08-30T19:54:38;4.85;;;1.40;;
44120;SDS011;29783;52.504;13.478;2022-08-30T19:57:04;4.45;;;1.92;;
44120;SDS011;29783;52.504;13.478;2022-08-30T19:59:29;4.40;;;1.55;;
44120;SDS011;29783;52.504;13.478;2022-08-30T20:01:55;3.40;;;1.85;;
44120;SDS011;29783;52.504;13.478;2022-08-30T20:04:21;2.10;;;1.83;;
44120;SDS011;29783;52.504;13.478;2022-08-30T20:06:46;5.97;;;1.90;;
44120;SDS011;29783;52.504;13.478;2022-08-30T20:09:12;5.55;;;1.67;;
44120;SDS011;29783;52.504;13.478;2022-08-30T20:11:39;3.70;;;1.80;;
44120;SDS011;29783;52.504;13.478;2022-08-30T20:14:06;3.65;;;1.63;;
44120;SDS011;29783;52.504;13.478;2022-08-30T20:16:33;3.45;;;1.73;;
44120;SDS011;29783;52.504;13.478;2022-08-30T20:18:58;7.57;;;1.80;;
44120;SDS011;29783;52.504;13.478;2022-08-30T20:21:24;3.60;;;1.60;;
44120;SDS011;29783;52.504;13.478;2022-08-30T20:23:50;3.88;;;1.90;;
44120;SDS011;29783;52.504;13.478;2022-08-30T20:26:15;2.45;;;1.35;;
44120;SDS011;29783;52.504;13.478;2022-08-30T20:28:41;6.68;;;1.80;;
44120;SDS011;29783;52.504;13.478;2022-08-30T20:31:07;5.07;;;1.80;;
44120;SDS011;29783;52.504;13.478;2022-08-30T20:33:34;5.35;;;1.48;;
44120;SDS011;29783;52.504;13.478;2022-08-30T20:36:01;3.72;;;1.80;;
44120;SDS011;29783;52.504;13.478;2022-08-30T20:38:28;2.55;;;1.33;;
44120;SDS011;29783;52.504;13.478;2022-08-30T20:40:55;1.67;;;1.23;;
44120;SDS011;29783;52.504;13.478;2022-08-30T20:43:23;3.15;;;1.40;;
44120;SDS011;29783;52.504;13.478;2022-08-30T20:45:50;1.95;;;1.30;;
44120;SDS011;29783;52.504;13.478;2022-08-30T20:48:17;3.33;;;1.58;;
44120;SDS011;29783;52.504;13.478;2022-08-30T20:50:43;6.50;;;1.25;;
44120;SDS011;29783;52.504;13.478;2022-08-30T20:53:09;2.28;;;1.10;;
44120;SDS011;29783;52.504;13.478;2022-08-30T20:55:39;2.55;;;0.93;;
44120;SDS011;29783;52.504;13.478;2022-08-30T20:58:05;1.27;;;0.90;;
44120;SDS011;29783;52.504;13.478;2022-08-30T21:00:31;2.45;;;1.00;;
44120;SDS011;29783;52.504;13.478;2022-08-30T21:02:57;1.65;;;0.80;;
44120;SDS011;29783;52.504;13.478;2022-08-30T21:05:22;1.58;;;0.80;;
44120;SDS011;29783;52.504;13.478;2022-08-30T21:07:48;2.05;;;1.08;;
44120;SDS011;29783;52.504;13.478;2022-08-30T21:10:14;2.58;;;0.90;;
44120;SDS011;29783;52.504;13.478;2022-08-30T21:12:41;1.45;;;1.00;;
44120;SDS011;29783;52.504;13.478;2022-08-30T21:15:07;1.67;;;0.90;;
44120;SDS011;29783;52.504;13.478;2022-08-30T21:17:33;3.47;;;1.02;;
44120;SDS011;29783;52.504;13.478;2022-08-30T21:19:58;4.38;;;0.95;;
44120;SDS011;29783;52.504;13.478;2022-08-30T21:22:24;7.18;;;0.90;;
44120;SDS011;29783;52.504;13.478;2022-08-30T21:24:50;1.95;;;1.10;;
44120;SDS011;29783;52.504;13.478;2022-08-30T21:27:16;1.98;;;0.98;;
44120;SDS011;29783;52.504;13.478;2022-08-30T21:29:42;1.33;;;0.80;;
44120;SDS011;29783;52.504;13.478;2022-08-30T21:32:08;1.60;;;1.00;;
44120;SDS011;29783;52.504;13.478;2022-08-30T21:34:34;2.28;;;1.08;;
44120;SDS011;29783;52.504;13.478;2022-08-30T21:37:18;1.77;;;1.20;;
44120;SDS011;29783;52.504;13.478;2022-08-30T21:39:44;1.92;;;0.80;;
44120;SDS011;29783;52.504;13.478;2022-08-30T21:42:10;2.10;;;1.10;;
44120;SDS011;29783;52.504;13.478;2022-08-30T21:44:36;2.30;;;0.90;;
44120;SDS011;29783;52.504;13.478;2022-08-30T21:47:02;1.42;;;0.80;;
44120;SDS011;29783;52.504;13.478;2022-08-30T21:49:28;1.98;;;0.93;;